Wolfeboro, NH (03894)

4:08 PM EDT on September 03, 2015 (GMT -0400)
WCYC | | Change Station
CLOSE
Current Station
Personal Weather Station
Location: Wolfeboro, NH
Elevation: 524 ft
Nearby Weather Stations

Elev 524 ft 43.58 °N, 71.22 °W | Updated 1 second ago

Partly Cloudy
Partly Cloudy
87.3 °F
Feels Like 94 °F
N
6.0
Wind Variable Wind from NNE
Gusts 13.0 mph

Today
High -- | Low -- °F
--% Chance of Precip.
Yesterday
High -- | Low -- °F
Precip. -- in
6:10 AM 7:17 PM
Waning Gibbous, 67% visible
Pressure 29.83 in
Visibility 9.0 miles
Clouds Clear
Heat Index 94 °F
Dew Point 72 °F
Humidity 60%
Rainfall 0.00 in
Snow Depth Not available.
UV 4 out of 12
Pollen 6.90 out of 12
Air Quality Not available.
Flu Activity Not available.
METAR KLCI 031955Z AUTO 00000KT 9SM CLR 29/18 A2983 RMK AO1 LTG DSNT E
Pressure 29.83 in
Visibility 9.0 miles
Clouds Clear
Heat Index 94 °F
Dew Point 72 °F
Humidity 60%
Rainfall 0.00 in
Snow Depth Not available.
UV 4 out of 12
Pollen 6.90 out of 12
Air Quality Not available.
Flu Activity Not available.
METAR KLCI 031955Z AUTO 00000KT 9SM CLR 29/18 A2983 RMK AO1 LTG DSNT E

10-Day Weather Forecast

×

Almanac

Astronomy

Sep. 03, 2015 Rise Set
Actual Time
Civil Twilight
Nautical Twilight
Astronomical Twilight
Moon
Length of Visible Light
Length of Day
Tomorrow will be .
, % of the Moon is Illuminated

Today's Extremes

State Highs State Lows

Community

WunderPhotos

Upload Photos

1,852,019 photos uploaded!

WunderBlogs® & News

Nearby

Air Quality

  Air Quality AQ Index Pollutant
Not available.

Snow Depth

Station Depth Elevation

Earthquake Activity

City Distance Mag. Time & Date
Minimum magnitude displayed is 2.5.

Coastal Water Temperatures

Place Temperature

Stations

Nearby Weather Stations

Station Location Temp. Windchill Dew Point Humidity Wind Precip. Elev Updated Type